createdAt,value
2018-08-10T00:00:56.988Z,64.20
2018-08-10T00:03:37.116Z,64.20
2018-08-10T00:06:12.594Z,64.10
2018-08-10T00:08:47.913Z,64.10
2018-08-10T00:11:23.786Z,63.90
2018-08-10T00:13:59.130Z,63.70
2018-08-10T00:16:34.423Z,67.50
2018-08-10T00:19:09.913Z,71.60
2018-08-10T00:21:44.723Z,72.70
2018-08-10T00:24:19.615Z,71.60
2018-08-10T00:26:54.334Z,71.60
2018-08-10T00:29:29.480Z,71.80
2018-08-10T00:32:04.258Z,71.80
2018-08-10T00:34:39.590Z,71.50
2018-08-10T00:37:14.352Z,70.80
2018-08-10T00:39:50.089Z,70.10
2018-08-10T00:42:24.936Z,70.00
2018-08-10T00:44:59.911Z,70.30
2018-08-10T00:47:34.767Z,70.30
2018-08-10T00:50:11.114Z,70.10
2018-08-10T00:52:47.410Z,70.20
2018-08-10T00:55:22.036Z,69.60
2018-08-10T00:57:57.833Z,70.40
2018-08-10T01:00:32.701Z,70.10
2018-08-10T01:03:07.881Z,70.20
2018-08-10T01:05:42.881Z,70.80
2018-08-10T01:08:17.826Z,71.50
2018-08-10T01:10:52.730Z,71.10
2018-08-10T01:13:28.042Z,70.70
2018-08-10T01:16:03.026Z,70.40
2018-08-10T01:18:37.841Z,70.10
2018-08-10T01:21:12.484Z,69.90
2018-08-10T01:23:47.549Z,70.10
2018-08-10T01:26:23.450Z,70.60
2018-08-10T01:28:58.571Z,70.20
2018-08-10T01:31:33.635Z,70.10
2018-08-10T01:34:08.743Z,70.50
2018-08-10T01:36:43.799Z,69.90
2018-08-10T01:39:18.942Z,70.00
2018-08-10T01:41:53.893Z,69.60
2018-08-10T01:44:29.709Z,69.70
2018-08-10T01:47:05.030Z,69.40
2018-08-10T01:49:40.054Z,69.70
2018-08-10T01:52:14.651Z,69.50
2018-08-10T01:54:49.323Z,69.50
2018-08-10T01:57:24.268Z,69.10
2018-08-10T01:59:59.350Z,69.80
2018-08-10T02:02:34.342Z,69.30
2018-08-10T02:05:10.873Z,69.60
2018-08-10T02:07:45.604Z,69.60
2018-08-10T02:10:20.751Z,70.00
2018-08-10T02:12:56.926Z,70.30
2018-08-10T02:15:31.904Z,70.50
2018-08-10T02:18:06.745Z,70.20
2018-08-10T02:20:41.569Z,69.70
2018-08-10T02:23:17.177Z,69.10
2018-08-10T02:25:52.617Z,69.20
2018-08-10T02:28:27.461Z,69.40
2018-08-10T02:31:02.652Z,69.10
2018-08-10T02:33:37.671Z,68.80
2018-08-10T02:36:12.572Z,68.30
2018-08-10T02:38:50.396Z,67.10
2018-08-10T02:41:25.131Z,67.50
2018-08-10T02:44:00.107Z,66.50
2018-08-10T02:46:34.925Z,66.90
2018-08-10T02:49:10.501Z,66.90
2018-08-10T02:51:45.381Z,65.70
2018-08-10T02:54:20.421Z,65.40
2018-08-10T02:56:55.958Z,64.80
2018-08-10T02:59:30.866Z,64.50
2018-08-10T03:02:06.553Z,64.30
2018-08-10T03:04:41.379Z,64.70
2018-08-10T03:07:16.346Z,64.10
2018-08-10T03:09:51.290Z,64.00
2018-08-10T03:12:26.512Z,63.80
2018-08-10T03:15:01.374Z,64.20
2018-08-10T03:17:36.285Z,64.70
2018-08-10T03:20:11.517Z,64.70
2018-08-10T03:22:46.299Z,65.10
2018-08-10T03:25:21.233Z,65.30
2018-08-10T03:27:56.426Z,65.20
2018-08-10T03:30:31.697Z,64.30
2018-08-10T03:33:07.493Z,64.00
2018-08-10T03:35:42.306Z,64.90
2018-08-10T03:38:17.006Z,63.40
2018-08-10T03:40:51.959Z,64.20
2018-08-10T03:43:26.787Z,63.90
2018-08-10T03:46:01.673Z,63.20
2018-08-10T03:48:36.498Z,63.60
2018-08-10T03:51:11.491Z,63.60
2018-08-10T03:53:46.203Z,63.50
2018-08-10T03:56:21.639Z,64.00
2018-08-10T03:58:56.621Z,63.50
2018-08-10T04:01:31.533Z,63.60
2018-08-10T04:04:06.682Z,63.50
2018-08-10T04:06:41.609Z,64.00
2018-08-10T04:09:16.234Z,63.70
2018-08-10T04:11:51.435Z,63.90
2018-08-10T04:14:26.322Z,63.60
2018-08-10T04:17:01.170Z,64.40
2018-08-10T04:19:35.898Z,63.90
2018-08-10T04:22:10.893Z,64.80
2018-08-10T04:24:45.782Z,63.90
2018-08-10T04:27:21.433Z,64.60
2018-08-10T04:29:56.096Z,63.60
2018-08-10T04:32:31.687Z,64.20
2018-08-10T04:35:07.006Z,65.20
2018-08-10T04:37:42.207Z,65.10
2018-08-10T04:40:18.155Z,65.60
2018-08-10T04:42:54.239Z,65.20
2018-08-10T04:45:29.567Z,65.40
2018-08-10T04:48:04.731Z,65.60
2018-08-10T04:50:40.094Z,65.70
2018-08-10T04:53:15.240Z,66.10
2018-08-10T04:55:50.212Z,66.20
2018-08-10T04:58:25.329Z,66.50
2018-08-10T05:01:00.515Z,66.20
2018-08-10T05:03:35.124Z,66.20
2018-08-10T05:06:10.078Z,67.10
2018-08-10T05:08:44.872Z,67.20
2018-08-10T05:11:21.574Z,67.70
2018-08-10T05:13:56.449Z,67.90
2018-08-10T05:16:31.101Z,67.40
2018-08-10T05:19:05.874Z,67.40
2018-08-10T05:21:40.997Z,68.30
2018-08-10T05:24:15.930Z,68.20
2018-08-10T05:26:51.151Z,67.70
2018-08-10T05:29:26.204Z,67.10
2018-08-10T05:32:01.326Z,67.20
2018-08-10T05:34:36.435Z,67.40
2018-08-10T05:37:11.653Z,66.70
2018-08-10T05:39:46.916Z,66.10
2018-08-10T05:42:22.100Z,66.00
2018-08-10T05:44:56.868Z,65.20
2018-08-10T05:47:31.933Z,65.10
2018-08-10T05:50:06.939Z,65.00
2018-08-10T05:52:41.831Z,65.60
2018-08-10T05:55:17.145Z,65.90
2018-08-10T05:57:58.803Z,65.70
2018-08-10T06:00:34.037Z,65.70
2018-08-10T06:03:08.951Z,66.20
2018-08-10T06:05:44.038Z,66.10
2018-08-10T06:08:18.803Z,65.80
2018-08-10T06:10:53.717Z,65.50
2018-08-10T06:13:29.077Z,65.50
2018-08-10T06:16:04.425Z,66.70
2018-08-10T06:18:39.138Z,66.10
2018-08-10T06:21:14.675Z,65.90
2018-08-10T06:23:50.089Z,66.40
2018-08-10T06:26:25.678Z,66.90
2018-08-10T06:29:00.613Z,67.80
2018-08-10T06:31:35.472Z,67.20
2018-08-10T06:34:11.584Z,67.30
2018-08-10T06:36:46.553Z,67.10
2018-08-10T06:39:21.505Z,67.40
2018-08-10T06:41:56.126Z,66.70
2018-08-10T06:44:31.130Z,65.40
2018-08-10T06:47:06.395Z,65.20
2018-08-10T06:49:41.382Z,65.40
2018-08-10T06:52:16.122Z,64.90
2018-08-10T06:54:51.220Z,64.70
2018-08-10T06:57:26.204Z,62.50
2018-08-10T07:00:01.241Z,61.90
2018-08-10T07:02:36.256Z,62.50
2018-08-10T07:05:11.432Z,61.80
2018-08-10T07:07:46.811Z,60.90
2018-08-10T07:10:21.868Z,60.70
2018-08-10T07:12:56.874Z,60.20
2018-08-10T07:15:32.085Z,60.30
2018-08-10T07:18:07.045Z,58.90
2018-08-10T07:20:42.202Z,59.60
2018-08-10T07:23:16.829Z,60.30
2018-08-10T07:25:51.509Z,59.70
2018-08-10T07:28:26.341Z,59.60
2018-08-10T07:31:01.137Z,59.50
2018-08-10T07:33:36.008Z,58.40
2018-08-10T07:36:10.901Z,58.20
2018-08-10T07:38:46.367Z,59.20
2018-08-10T07:41:21.121Z,58.30
2018-08-10T07:43:55.916Z,57.80
2018-08-10T07:46:30.959Z,58.70
2018-08-10T07:49:06.590Z,57.70
2018-08-10T07:51:41.917Z,56.80
2018-08-10T07:54:17.394Z,56.60
2018-08-10T07:56:53.262Z,56.40
2018-08-10T07:59:28.861Z,56.60
2018-08-10T08:02:04.435Z,57.60
2018-08-10T08:04:39.705Z,52.10
2018-08-10T08:07:15.168Z,53.50
2018-08-10T08:09:50.634Z,55.20
2018-08-10T08:12:25.797Z,56.60
2018-08-10T08:15:01.305Z,55.80
2018-08-10T08:17:36.711Z,55.60
2018-08-10T08:20:11.858Z,53.90
2018-08-10T08:22:47.296Z,55.60
2018-08-10T08:25:23.233Z,54.20
2018-08-10T08:27:58.842Z,53.10
2018-08-10T08:30:34.219Z,53.50
2018-08-10T08:33:10.099Z,53.20
2018-08-10T08:35:46.362Z,52.20
2018-08-10T08:38:32.865Z,53.20
2018-08-10T08:41:09.625Z,52.00
2018-08-10T08:46:00.291Z,53.30
2018-08-10T08:48:37.926Z,53.30
2018-08-10T08:51:19.569Z,51.50
2018-08-10T08:54:09.842Z,50.20
2018-08-10T08:56:45.328Z,49.10
2018-08-10T08:59:21.259Z,51.70
2018-08-10T09:01:56.822Z,49.40
2018-08-10T09:04:45.105Z,50.60
2018-08-10T09:07:21.153Z,48.50
2018-08-10T09:09:57.278Z,47.50
2018-08-10T09:12:32.773Z,46.90
2018-08-10T09:15:10.344Z,46.80
2018-08-10T09:17:46.140Z,45.10
2018-08-10T09:20:22.471Z,44.00
2018-08-10T09:22:58.464Z,44.20
2018-08-10T09:25:34.041Z,42.50
2018-08-10T09:28:09.806Z,45.10
2018-08-10T09:30:45.533Z,41.00
2018-08-10T09:33:21.254Z,41.10
2018-08-10T09:35:56.758Z,40.30
2018-08-10T09:38:32.204Z,38.80
2018-08-10T09:41:07.743Z,39.50
2018-08-10T09:43:43.441Z,37.80
2018-08-10T09:46:18.991Z,36.90
2018-08-10T09:48:54.381Z,35.90
2018-08-10T09:51:30.118Z,39.30
2018-08-10T09:54:05.142Z,38.30
2018-08-10T09:56:40.838Z,36.40
2018-08-10T09:59:15.953Z,37.50
2018-08-10T10:01:56.631Z,35.20
2018-08-10T10:04:32.007Z,35.60
2018-08-10T10:07:06.985Z,35.40
2018-08-10T10:09:42.539Z,31.90
2018-08-10T10:12:17.705Z,30.90
2018-08-10T10:14:53.518Z,31.00
2018-08-10T10:17:28.652Z,30.80
2018-08-10T10:20:05.018Z,33.40
2018-08-10T10:22:40.554Z,33.60
2018-08-10T10:25:15.925Z,33.10
2018-08-10T10:27:51.292Z,30.80
2018-08-10T10:30:26.827Z,30.20
2018-08-10T10:33:02.082Z,30.30
2018-08-10T10:35:37.341Z,29.90
2018-08-10T10:38:12.846Z,32.40
2018-08-10T10:40:47.957Z,32.50
2018-08-10T10:43:23.122Z,29.10
2018-08-10T10:45:58.328Z,29.80
2018-08-10T10:48:33.957Z,29.30
2018-08-10T10:51:09.137Z,26.60
2018-08-10T10:53:44.689Z,27.80
2018-08-10T10:56:19.940Z,26.30
2018-08-10T10:58:55.041Z,26.20
2018-08-10T11:01:30.447Z,26.60
2018-08-10T11:04:05.693Z,26.50
2018-08-10T11:06:40.809Z,25.90
2018-08-10T11:09:16.100Z,25.10
2018-08-10T11:11:51.078Z,27.10
2018-08-10T11:14:26.421Z,25.70
2018-08-10T11:17:01.865Z,26.40
2018-08-10T11:19:36.870Z,26.40
2018-08-10T11:22:11.843Z,28.10
2018-08-10T11:24:47.429Z,28.90
2018-08-10T11:27:22.446Z,29.00
2018-08-10T11:29:57.509Z,31.70
2018-08-10T11:32:32.718Z,32.70
2018-08-10T11:35:08.369Z,31.70
2018-08-10T11:37:43.891Z,34.70
2018-08-10T11:40:19.222Z,35.40
2018-08-10T11:42:54.611Z,36.70
2018-08-10T11:45:29.929Z,35.90
2018-08-10T11:48:05.497Z,33.80
2018-08-10T11:50:40.925Z,36.90
2018-08-10T11:53:16.986Z,37.40
2018-08-10T11:55:52.561Z,37.30
2018-08-10T11:58:28.154Z,37.00
2018-08-10T12:01:03.576Z,36.20
2018-08-10T12:03:46.459Z,37.00
2018-08-10T12:06:21.781Z,38.30
2018-08-10T12:08:57.194Z,39.60
2018-08-10T12:11:32.870Z,38.00
2018-08-10T12:14:08.314Z,36.70
2018-08-10T12:16:43.821Z,38.60
2018-08-10T12:19:51.884Z,37.50
2018-08-10T12:22:26.967Z,37.00
2018-08-10T12:25:02.434Z,37.60
2018-08-10T12:27:37.447Z,36.80
2018-08-10T12:30:14.038Z,33.10
2018-08-10T12:32:49.071Z,32.90
2018-08-10T12:35:24.234Z,35.00
2018-08-10T12:37:59.676Z,35.90
2018-08-10T12:40:35.165Z,34.10
2018-08-10T12:43:10.450Z,35.40
2018-08-10T12:45:46.370Z,36.80
2018-08-10T12:48:21.810Z,36.20
2018-08-10T12:50:57.135Z,38.20
2018-08-10T12:53:32.846Z,38.40
2018-08-10T12:56:08.165Z,38.20
2018-08-10T12:58:43.796Z,37.40
2018-08-10T13:01:19.188Z,37.40
2018-08-10T13:03:55.745Z,38.80
2018-08-10T13:06:31.652Z,37.10
2018-08-10T13:09:10.760Z,35.60
2018-08-10T13:11:46.434Z,37.90
2018-08-10T13:14:22.753Z,36.20
2018-08-10T13:16:58.241Z,37.30
2018-08-10T13:19:33.730Z,38.80
2018-08-10T13:22:09.221Z,37.20
2018-08-10T13:24:44.978Z,36.30
2018-08-10T13:27:21.166Z,35.40
2018-08-10T13:29:57.392Z,36.00
2018-08-10T13:32:33.404Z,35.70
2018-08-10T13:35:08.960Z,36.20
2018-08-10T13:37:44.770Z,35.90
2018-08-10T13:40:20.389Z,36.50
2018-08-10T13:42:55.598Z,36.90
2018-08-10T13:45:31.222Z,36.90
2018-08-10T13:48:07.187Z,36.70
2018-08-10T13:50:43.129Z,37.10
2018-08-10T13:53:18.695Z,36.80
2018-08-10T13:55:54.163Z,37.30
2018-08-10T13:58:29.812Z,37.30
2018-08-10T14:01:05.153Z,37.20
2018-08-10T14:03:40.736Z,35.70
2018-08-10T14:06:15.869Z,34.80
2018-08-10T14:08:51.320Z,31.00
2018-08-10T14:11:26.261Z,31.60
2018-08-10T14:14:02.355Z,33.10
2018-08-10T14:16:37.449Z,36.80
2018-08-10T14:19:14.570Z,33.90
2018-08-10T14:21:50.202Z,32.60
2018-08-10T14:24:25.463Z,34.80
2018-08-10T14:27:00.546Z,33.90
2018-08-10T14:29:35.657Z,33.70
2018-08-10T14:32:10.893Z,32.00
2018-08-10T14:34:45.977Z,33.20
2018-08-10T14:37:21.462Z,32.60
2018-08-10T14:39:57.028Z,32.20
2018-08-10T14:42:32.213Z,34.90
2018-08-10T14:45:12.789Z,31.80
2018-08-10T14:47:48.549Z,32.60
2018-08-10T14:50:23.713Z,31.70
2018-08-10T14:52:59.425Z,29.90
2018-08-10T14:55:34.547Z,28.70
2018-08-10T14:58:09.821Z,28.70
2018-08-10T15:00:45.113Z,30.70
2018-08-10T15:03:21.479Z,29.60
2018-08-10T15:05:56.893Z,28.10
2018-08-10T15:08:32.556Z,28.70
2018-08-10T15:11:08.357Z,28.80
2018-08-10T15:13:49.943Z,31.70
2018-08-10T15:16:25.511Z,31.50
2018-08-10T15:19:00.731Z,30.40
2018-08-10T15:21:35.982Z,30.40
2018-08-10T15:24:11.905Z,31.30
2018-08-10T15:26:47.441Z,31.90
2018-08-10T15:29:22.861Z,29.20
2018-08-10T15:31:58.104Z,32.50
2018-08-10T15:34:33.166Z,32.60
2018-08-10T15:37:08.518Z,31.60
2018-08-10T15:39:43.563Z,29.60
2018-08-10T15:42:19.321Z,30.30
2018-08-10T15:44:54.936Z,29.80
2018-08-10T15:47:30.407Z,28.30
2018-08-10T15:50:06.450Z,27.00
2018-08-10T15:52:43.081Z,28.20
2018-08-10T15:55:18.822Z,27.80
2018-08-10T15:57:54.056Z,28.80
2018-08-10T16:00:29.303Z,27.70
2018-08-10T16:03:04.510Z,27.80
2018-08-10T16:05:39.676Z,29.10
2018-08-10T16:08:14.755Z,29.70
2018-08-10T16:10:49.854Z,30.90
2018-08-10T16:13:24.912Z,31.80
2018-08-10T16:16:00.272Z,31.90
2018-08-10T16:18:35.702Z,32.20
2018-08-10T16:21:11.359Z,31.40
2018-08-10T16:23:46.500Z,31.40
2018-08-10T16:26:21.806Z,31.00
2018-08-10T16:28:57.050Z,32.30
2018-08-10T16:31:32.397Z,32.50
2018-08-10T16:34:08.551Z,32.30
2018-08-10T16:36:43.560Z,32.20
2018-08-10T16:39:18.771Z,31.60
2018-08-10T16:41:53.908Z,31.80
2018-08-10T16:44:28.983Z,31.40
2018-08-10T16:47:04.857Z,32.70
2018-08-10T16:49:40.281Z,31.80
2018-08-10T16:52:15.906Z,32.10
2018-08-10T16:54:51.134Z,32.50
2018-08-10T16:57:25.998Z,32.80
2018-08-10T17:00:01.169Z,32.20
2018-08-10T17:02:36.470Z,32.20
2018-08-10T17:05:11.389Z,32.40
2018-08-10T17:07:46.818Z,33.50
2018-08-10T17:10:22.238Z,34.40
2018-08-10T17:12:57.838Z,34.70
2018-08-10T17:15:33.500Z,35.00
2018-08-10T17:18:09.323Z,36.20
2018-08-10T17:20:44.598Z,37.20
2018-08-10T17:23:20.617Z,38.50
2018-08-10T17:25:56.331Z,39.30
2018-08-10T17:28:31.961Z,38.50
2018-08-10T17:31:07.911Z,38.00
2018-08-10T17:33:43.314Z,38.00
2018-08-10T17:36:18.891Z,38.50
2018-08-10T17:38:54.491Z,39.00
2018-08-10T17:41:30.137Z,39.50
2018-08-10T17:44:05.856Z,39.90
2018-08-10T17:46:41.984Z,40.20
2018-08-10T17:49:17.530Z,40.30
2018-08-10T17:51:52.957Z,40.60
2018-08-10T17:54:28.485Z,41.80
2018-08-10T17:57:04.138Z,43.00
2018-08-10T17:59:39.436Z,43.40
2018-08-10T18:02:15.269Z,43.80
2018-08-10T18:04:50.813Z,44.20
2018-08-10T18:07:26.206Z,44.90
2018-08-10T18:10:01.801Z,46.50
2018-08-10T18:12:38.610Z,45.50
2018-08-10T18:15:15.222Z,46.50
2018-08-10T18:17:51.059Z,47.70
2018-08-10T18:20:26.395Z,50.20
2018-08-10T18:23:02.202Z,50.10
2018-08-10T18:25:37.484Z,48.60
2018-08-10T18:28:13.284Z,50.20
2018-08-10T18:30:49.199Z,50.70
2018-08-10T18:33:25.239Z,49.70
2018-08-10T18:36:05.872Z,49.20
2018-08-10T18:38:41.486Z,49.10
2018-08-10T18:41:17.137Z,49.60
2018-08-10T18:43:52.566Z,51.30
2018-08-10T18:46:28.112Z,50.60
2018-08-10T18:49:03.543Z,50.50
2018-08-10T18:51:39.818Z,50.90
2018-08-10T18:54:15.425Z,50.70
2018-08-10T18:56:51.377Z,50.90
2018-08-10T18:59:27.130Z,52.60
2018-08-10T19:02:02.634Z,53.90
2018-08-10T19:04:38.397Z,55.10
2018-08-10T19:07:13.795Z,55.40
2018-08-10T19:09:49.789Z,55.90
2018-08-10T19:12:25.541Z,55.10
2018-08-10T19:15:01.377Z,55.50
2018-08-10T19:17:37.133Z,56.50
2018-08-10T19:20:13.822Z,56.00
2018-08-10T19:22:49.463Z,56.40
2018-08-10T19:25:24.815Z,56.50
2018-08-10T19:28:00.712Z,56.80
2018-08-10T19:30:36.125Z,56.70
2018-08-10T19:33:11.865Z,57.10
2018-08-10T19:35:47.599Z,57.30
2018-08-10T19:38:24.173Z,56.90
2018-08-10T19:40:59.750Z,57.10
2018-08-10T19:43:34.730Z,57.90
2018-08-10T19:46:09.767Z,57.90
2018-08-10T19:48:44.697Z,58.40
2018-08-10T19:51:19.823Z,58.60
2018-08-10T19:53:55.030Z,58.30
2018-08-10T19:56:31.133Z,57.90
2018-08-10T19:59:07.182Z,58.10
2018-08-10T20:01:42.011Z,57.70
2018-08-10T20:04:17.153Z,58.40
2018-08-10T20:06:52.441Z,59.20
2018-08-10T20:09:27.354Z,58.70
2018-08-10T20:12:02.634Z,58.20
2018-08-10T20:14:38.425Z,58.40
2018-08-10T20:17:13.844Z,58.10
2018-08-10T20:19:49.115Z,59.20
2018-08-10T20:22:24.434Z,60.00
2018-08-10T20:24:59.346Z,59.70
2018-08-10T20:27:34.975Z,59.30
2018-08-10T20:30:13.489Z,59.30
2018-08-10T20:32:49.228Z,59.60
2018-08-10T20:35:23.959Z,59.70
2018-08-10T20:37:58.920Z,59.80
2018-08-10T20:40:34.061Z,59.70
2018-08-10T20:43:08.875Z,59.40
2018-08-10T20:45:43.847Z,58.70
2018-08-10T20:48:19.186Z,59.70
2018-08-10T20:50:54.920Z,59.30
2018-08-10T20:53:30.430Z,59.50
2018-08-10T20:56:05.733Z,59.20
2018-08-10T20:58:40.624Z,60.10
2018-08-10T21:01:16.730Z,61.00
2018-08-10T21:03:51.667Z,61.90
2018-08-10T21:06:26.993Z,61.50
2018-08-10T21:09:01.848Z,62.40
2018-08-10T21:11:37.108Z,61.60
2018-08-10T21:14:11.806Z,62.10
2018-08-10T21:16:46.822Z,61.90
2018-08-10T21:19:22.165Z,61.80
2018-08-10T21:21:57.297Z,62.80
2018-08-10T21:24:32.268Z,63.10
2018-08-10T21:27:07.122Z,62.60
2018-08-10T21:29:42.818Z,62.90
2018-08-10T21:32:17.593Z,64.60
2018-08-10T21:34:52.577Z,63.50
2018-08-10T21:37:27.518Z,64.30
2018-08-10T21:40:03.362Z,64.30
2018-08-10T21:42:38.498Z,64.30
2018-08-10T21:45:13.251Z,65.00
2018-08-10T21:47:48.323Z,65.00
2018-08-10T21:50:23.072Z,65.20
2018-08-10T21:52:58.987Z,65.30
2018-08-10T21:55:34.047Z,65.30
2018-08-10T21:58:09.328Z,65.70
2018-08-10T22:00:51.767Z,65.90
2018-08-10T22:03:27.130Z,65.80
2018-08-10T22:06:02.177Z,66.00
2018-08-10T22:08:37.566Z,65.90
2018-08-10T22:11:12.453Z,65.30
2018-08-10T22:13:53.386Z,65.20
2018-08-10T22:16:33.321Z,65.20
2018-08-10T22:19:15.721Z,65.20
2018-08-10T22:21:50.605Z,65.60
2018-08-10T22:24:25.680Z,65.80
2018-08-10T22:27:00.566Z,66.10
2018-08-10T22:29:35.428Z,66.50
2018-08-10T22:32:10.585Z,67.30
2018-08-10T22:34:45.277Z,67.70
2018-08-10T22:37:20.488Z,67.50
2018-08-10T22:39:55.426Z,67.20
2018-08-10T22:42:30.455Z,67.00
2018-08-10T22:45:06.063Z,67.00
2018-08-10T22:47:41.371Z,67.20
2018-08-10T22:50:16.074Z,67.20
2018-08-10T22:52:51.155Z,68.60
2018-08-10T22:55:26.262Z,68.10
2018-08-10T22:58:01.205Z,68.00
2018-08-10T23:00:36.363Z,68.10
2018-08-10T23:03:11.430Z,68.10
2018-08-10T23:05:46.606Z,68.20
2018-08-10T23:08:21.574Z,68.50
2018-08-10T23:10:56.799Z,69.20
2018-08-10T23:13:32.537Z,68.40
2018-08-10T23:16:13.832Z,68.40
2018-08-10T23:18:48.573Z,68.10
2018-08-10T23:21:24.024Z,68.20
2018-08-10T23:23:59.867Z,68.30
2018-08-10T23:26:34.625Z,68.00
2018-08-10T23:29:09.558Z,68.10
2018-08-10T23:31:44.276Z,67.90
2018-08-10T23:34:19.112Z,68.00
2018-08-10T23:36:54.100Z,68.00
2018-08-10T23:39:29.251Z,67.50
2018-08-10T23:42:04.424Z,67.60
2018-08-10T23:44:39.737Z,67.60
2018-08-10T23:47:14.713Z,67.90
2018-08-10T23:49:49.389Z,68.70
2018-08-10T23:52:24.656Z,68.30
2018-08-10T23:54:59.682Z,68.80
2018-08-10T23:57:34.716Z,69.10
